createdAt,value
2019-04-30T00:02:59.325Z,13.07
2019-04-30T00:05:49.275Z,14.30
2019-04-30T00:08:39.001Z,12.37
2019-04-30T00:11:25.129Z,14.23
2019-04-30T00:14:12.550Z,13.80
2019-04-30T00:16:59.833Z,14.90
2019-04-30T00:19:50.418Z,16.27
2019-04-30T00:22:39.356Z,15.37
2019-04-30T00:25:28.414Z,16.70
2019-04-30T00:28:13.208Z,15.50
2019-04-30T00:31:00.237Z,16.10
2019-04-30T00:33:47.393Z,16.13
2019-04-30T00:36:37.421Z,15.73
2019-04-30T00:39:27.083Z,16.60
2019-04-30T00:42:12.379Z,17.00
2019-04-30T00:45:06.664Z,17.23
2019-04-30T00:47:48.989Z,18.47
2019-04-30T00:50:37.214Z,16.10
2019-04-30T00:53:26.098Z,17.33
2019-04-30T00:56:12.654Z,18.03
2019-04-30T00:59:02.393Z,17.73
2019-04-30T01:01:52.413Z,17.97
2019-04-30T01:04:41.091Z,18.83
2019-04-30T01:07:28.075Z,17.07
2019-04-30T01:10:15.320Z,16.73
2019-04-30T01:13:08.013Z,17.77
2019-04-30T01:15:52.477Z,19.23
2019-04-30T01:18:39.733Z,19.33
2019-04-30T01:21:28.522Z,19.40
2019-04-30T01:24:15.682Z,18.07
2019-04-30T01:27:06.786Z,19.23
2019-04-30T01:29:52.933Z,17.70
2019-04-30T01:32:40.108Z,18.80
2019-04-30T01:35:31.238Z,17.47
2019-04-30T01:38:15.692Z,18.80
2019-04-30T01:41:03.056Z,18.50
2019-04-30T01:43:49.906Z,18.07
2019-04-30T01:46:39.004Z,18.43
2019-04-30T01:49:26.746Z,18.43
2019-04-30T01:52:14.592Z,19.00
2019-04-30T01:55:01.951Z,19.57
2019-04-30T01:58:05.706Z,18.57
2019-04-30T02:00:59.239Z,18.20
2019-04-30T02:03:45.647Z,18.93
2019-04-30T02:06:32.891Z,18.63
2019-04-30T02:09:20.711Z,19.57
2019-04-30T02:12:09.358Z,20.60
2019-04-30T02:14:56.720Z,19.93
2019-04-30T02:17:43.410Z,21.97
2019-04-30T02:20:30.652Z,22.27
2019-04-30T02:23:19.618Z,22.73
2019-04-30T02:26:08.640Z,22.70
2019-04-30T02:28:56.139Z,23.17
2019-04-30T02:31:43.163Z,23.33
2019-04-30T02:34:34.531Z,23.57
2019-04-30T02:37:26.035Z,24.07
2019-04-30T02:40:13.285Z,23.20
2019-04-30T02:43:01.854Z,24.10
2019-04-30T02:45:51.325Z,23.80
2019-04-30T02:48:40.365Z,22.83
2019-04-30T02:51:30.199Z,22.83
2019-04-30T02:54:23.248Z,22.03
2019-04-30T02:57:11.703Z,23.63
2019-04-30T03:00:06.231Z,24.13
2019-04-30T03:02:53.643Z,21.87
2019-04-30T03:05:40.584Z,23.17
2019-04-30T03:08:29.731Z,21.97
2019-04-30T03:11:16.887Z,24.50
2019-04-30T03:14:04.452Z,23.13
2019-04-30T03:17:00.344Z,23.40
2019-04-30T03:19:50.219Z,24.20
2019-04-30T03:22:39.360Z,25.67
2019-04-30T03:25:25.643Z,27.77
2019-04-30T03:28:12.736Z,26.13
2019-04-30T03:31:04.101Z,26.77
2019-04-30T03:33:51.988Z,26.07
2019-04-30T03:36:36.651Z,26.37
2019-04-30T03:39:23.801Z,26.33
2019-04-30T03:42:10.910Z,26.00
2019-04-30T03:44:59.255Z,25.73
2019-04-30T03:47:46.388Z,26.07
2019-04-30T03:50:49.262Z,26.67
2019-04-30T03:53:22.039Z,25.53
2019-04-30T03:56:09.524Z,26.73
2019-04-30T03:58:56.641Z,27.57
2019-04-30T04:01:45.311Z,25.83
2019-04-30T04:04:39.517Z,26.00
2019-04-30T04:07:39.593Z,25.47
2019-04-30T04:10:31.171Z,26.23
2019-04-30T04:13:19.744Z,24.90
2019-04-30T04:16:09.518Z,25.27
2019-04-30T04:18:55.477Z,26.00
2019-04-30T04:21:42.431Z,25.43
2019-04-30T04:24:30.226Z,24.63
2019-04-30T04:27:19.157Z,24.27
2019-04-30T04:30:10.347Z,22.10
2019-04-30T04:32:56.086Z,23.43
2019-04-30T04:35:43.454Z,23.67
2019-04-30T04:38:30.549Z,23.90
2019-04-30T04:41:19.760Z,23.17
2019-04-30T04:44:06.324Z,24.50
2019-04-30T04:46:53.699Z,23.13
2019-04-30T04:49:40.938Z,22.83
2019-04-30T04:52:31.569Z,22.17
2019-04-30T04:55:21.858Z,22.57
2019-04-30T04:58:06.225Z,23.00
2019-04-30T05:00:53.208Z,22.63
2019-04-30T05:03:40.582Z,23.97
2019-04-30T05:06:29.882Z,23.90
2019-04-30T05:09:16.813Z,25.10
2019-04-30T05:12:04.135Z,24.63
2019-04-30T05:14:51.076Z,23.53
2019-04-30T05:17:39.872Z,23.30
2019-04-30T05:20:29.078Z,23.87
2019-04-30T05:23:16.233Z,21.23
2019-04-30T05:26:03.133Z,20.73
2019-04-30T05:28:52.806Z,20.67
2019-04-30T05:31:39.414Z,20.83
2019-04-30T05:34:28.833Z,19.93
2019-04-30T05:37:15.985Z,19.60
2019-04-30T05:40:03.144Z,18.63
2019-04-30T05:42:50.474Z,18.80
2019-04-30T05:45:39.010Z,19.03
2019-04-30T05:48:26.292Z,18.50
2019-04-30T05:51:13.210Z,17.47
2019-04-30T05:54:00.437Z,17.03
2019-04-30T05:56:49.281Z,17.43
2019-04-30T05:59:38.674Z,16.73
2019-04-30T06:02:25.077Z,16.47
2019-04-30T06:05:12.461Z,14.97
2019-04-30T06:07:59.525Z,16.23
2019-04-30T06:10:57.153Z,16.00
2019-04-30T06:13:49.114Z,14.63
2019-04-30T06:16:36.268Z,14.40
2019-04-30T06:19:23.478Z,14.83
2019-04-30T06:22:11.108Z,13.97
2019-04-30T06:24:59.496Z,14.43
2019-04-30T06:27:48.832Z,14.07
2019-04-30T06:30:36.600Z,12.83
2019-04-30T06:33:23.657Z,11.37
2019-04-30T06:36:11.681Z,9.40
2019-04-30T06:38:59.153Z,10.50
2019-04-30T06:41:46.469Z,10.03
2019-04-30T06:44:37.362Z,10.27
2019-04-30T06:47:32.538Z,9.73
2019-04-30T06:50:12.198Z,10.93
2019-04-30T06:53:01.633Z,9.77
2019-04-30T06:55:49.230Z,10.70
2019-04-30T06:58:36.814Z,10.10
2019-04-30T07:01:28.881Z,11.10
2019-04-30T07:04:15.380Z,10.83
2019-04-30T07:07:02.442Z,10.27
2019-04-30T07:09:58.297Z,9.33
2019-04-30T07:12:44.404Z,9.17
2019-04-30T07:15:31.626Z,9.77
2019-04-30T07:18:19.065Z,9.83
2019-04-30T07:21:08.602Z,10.40
2019-04-30T07:23:54.964Z,9.87
2019-04-30T07:26:41.910Z,10.03
2019-04-30T07:29:29.599Z,9.67
2019-04-30T07:32:19.541Z,10.67
2019-04-30T07:35:06.740Z,9.67
2019-04-30T07:37:59.688Z,10.13
2019-04-30T07:40:43.140Z,11.67
2019-04-30T07:43:30.506Z,11.93
2019-04-30T07:46:19.783Z,12.13
2019-04-30T07:49:06.218Z,12.67
2019-04-30T07:51:54.156Z,12.00
2019-04-30T07:54:41.880Z,11.77
2019-04-30T07:57:32.233Z,11.63
2019-04-30T08:00:19.403Z,12.07
2019-04-30T08:03:10.348Z,11.40
2019-04-30T08:05:59.862Z,12.47
2019-04-30T08:08:50.103Z,11.67
2019-04-30T08:11:39.685Z,11.53
2019-04-30T08:14:24.797Z,11.50
2019-04-30T08:17:11.830Z,12.83
2019-04-30T08:19:59.262Z,12.57
2019-04-30T08:22:46.312Z,13.90
2019-04-30T08:25:33.397Z,12.83
2019-04-30T08:28:20.681Z,13.47
2019-04-30T08:31:09.024Z,14.27
2019-04-30T08:33:56.521Z,15.13
2019-04-30T08:36:43.538Z,16.20
2019-04-30T08:39:31.813Z,16.50
2019-04-30T08:42:30.960Z,15.77
2019-04-30T08:45:09.482Z,17.30
2019-04-30T08:47:56.798Z,16.03
2019-04-30T08:50:44.022Z,17.93
2019-04-30T08:53:33.623Z,17.73
2019-04-30T08:56:21.958Z,18.83
2019-04-30T08:59:11.238Z,18.37
2019-04-30T09:02:00.009Z,18.93
2019-04-30T09:04:49.401Z,20.70
2019-04-30T09:07:38.656Z,20.73
2019-04-30T09:10:25.583Z,21.47
2019-04-30T09:13:12.918Z,21.40
2019-04-30T09:15:59.864Z,20.63
2019-04-30T09:18:46.600Z,22.77
2019-04-30T09:21:33.239Z,25.73
2019-04-30T09:24:20.206Z,26.00
2019-04-30T09:27:10.605Z,26.50
2019-04-30T09:29:58.821Z,26.70
2019-04-30T09:32:46.197Z,27.23
2019-04-30T09:35:33.433Z,27.83
2019-04-30T09:38:20.575Z,29.20
2019-04-30T09:41:09.365Z,28.23
2019-04-30T09:43:56.507Z,28.00
2019-04-30T09:46:43.719Z,28.40
2019-04-30T09:49:30.958Z,28.87
2019-04-30T09:52:19.247Z,29.43
2019-04-30T09:55:09.416Z,30.07
2019-04-30T09:57:56.142Z,29.47
2019-04-30T10:00:43.281Z,30.67
2019-04-30T10:03:31.570Z,31.13
2019-04-30T10:06:19.212Z,29.57
2019-04-30T10:09:09.652Z,38.73
2019-04-30T10:11:59.550Z,29.47
2019-04-30T10:14:46.636Z,28.43
2019-04-30T10:17:35.461Z,34.63
2019-04-30T10:20:25.541Z,25.00
2019-04-30T10:23:13.053Z,26.17
2019-04-30T10:26:00.789Z,25.83
2019-04-30T10:28:51.042Z,24.10
2019-04-30T10:31:39.030Z,25.53
2019-04-30T10:34:26.127Z,25.13
2019-04-30T10:37:13.566Z,25.57
2019-04-30T10:40:00.729Z,24.87
2019-04-30T10:42:48.860Z,26.00
2019-04-30T10:45:38.662Z,26.27
2019-04-30T10:48:25.187Z,27.40
2019-04-30T10:51:12.348Z,27.07
2019-04-30T10:53:59.625Z,28.23
2019-04-30T10:56:46.620Z,29.83
2019-04-30T10:59:34.141Z,29.20
2019-04-30T11:02:21.579Z,29.03
2019-04-30T11:05:09.740Z,28.83
2019-04-30T11:07:59.285Z,30.63
2019-04-30T11:10:46.409Z,29.73
2019-04-30T11:13:34.138Z,32.27
2019-04-30T11:16:21.093Z,36.90
2019-04-30T11:19:09.384Z,30.97
2019-04-30T11:21:57.092Z,32.27
2019-04-30T11:24:56.723Z,30.53
2019-04-30T11:27:33.215Z,31.17
2019-04-30T11:30:24.132Z,30.10
2019-04-30T11:33:09.656Z,32.80
2019-04-30T11:36:02.929Z,32.33
2019-04-30T11:38:45.729Z,34.00
2019-04-30T11:41:33.355Z,33.40
2019-04-30T11:44:30.386Z,33.10
2019-04-30T11:47:15.401Z,33.03
2019-04-30T11:50:02.800Z,33.33
2019-04-30T11:52:50.194Z,33.37
2019-04-30T11:55:39.034Z,32.27
2019-04-30T11:58:26.265Z,32.03
2019-04-30T12:01:15.985Z,32.63
2019-04-30T12:04:03.345Z,31.87
2019-04-30T12:06:51.352Z,32.80
2019-04-30T12:09:51.950Z,31.10
2019-04-30T12:12:39.070Z,32.60
2019-04-30T12:15:26.084Z,30.90
2019-04-30T12:18:13.090Z,32.43
2019-04-30T12:21:00.490Z,32.77
2019-04-30T12:23:47.677Z,32.87
2019-04-30T12:26:35.033Z,32.70
2019-04-30T12:29:22.222Z,32.27
2019-04-30T12:32:09.752Z,30.93
2019-04-30T12:34:56.845Z,32.13
2019-04-30T12:37:43.876Z,32.70
2019-04-30T12:40:32.367Z,33.90
2019-04-30T12:43:19.880Z,34.77
2019-04-30T12:46:07.052Z,33.67
2019-04-30T12:49:01.606Z,33.43
2019-04-30T12:51:50.637Z,34.57
2019-04-30T12:54:39.161Z,34.00
2019-04-30T12:57:36.717Z,36.37
2019-04-30T13:00:24.013Z,40.27
2019-04-30T13:03:11.699Z,35.30
2019-04-30T13:06:01.265Z,36.30
2019-04-30T13:08:51.734Z,34.40
2019-04-30T13:11:36.853Z,35.00
2019-04-30T13:14:24.847Z,33.87
2019-04-30T13:17:12.802Z,33.27
2019-04-30T13:19:59.801Z,34.10
2019-04-30T13:22:48.763Z,33.43
2019-04-30T13:25:43.036Z,32.67
2019-04-30T13:28:26.040Z,31.63
2019-04-30T13:31:13.533Z,28.75
2019-04-30T13:34:19.179Z,29.85
2019-04-30T13:37:07.069Z,28.32
2019-04-30T13:40:05.546Z,27.37
2019-04-30T13:42:54.521Z,26.82
2019-04-30T13:45:43.362Z,28.75
2019-04-30T13:48:32.872Z,27.27
2019-04-30T13:51:20.727Z,28.10
2019-04-30T13:54:08.542Z,27.82
2019-04-30T13:56:56.117Z,26.10
2019-04-30T13:59:44.043Z,26.30
2019-04-30T14:02:33.477Z,25.30
2019-04-30T14:05:21.146Z,24.47
2019-04-30T14:08:26.356Z,27.30
2019-04-30T14:11:15.375Z,24.63
2019-04-30T14:14:03.480Z,24.55
2019-04-30T14:16:51.560Z,24.35
2019-04-30T14:19:39.171Z,23.12
2019-04-30T14:22:27.102Z,22.22
2019-04-30T14:25:15.474Z,24.55
2019-04-30T14:28:02.711Z,23.90
2019-04-30T14:30:50.456Z,24.65
2019-04-30T14:33:37.767Z,21.97
2019-04-30T14:36:25.847Z,20.48
2019-04-30T14:39:16.930Z,21.20
2019-04-30T14:42:04.004Z,21.80
2019-04-30T14:44:54.418Z,21.55
2019-04-30T14:47:50.596Z,20.48
2019-04-30T14:50:38.901Z,20.32
2019-04-30T14:53:28.389Z,19.35
2019-04-30T14:56:21.628Z,21.55
2019-04-30T14:59:13.692Z,20.77
2019-04-30T15:02:02.880Z,20.15
2019-04-30T15:04:50.494Z,21.20
2019-04-30T15:07:39.702Z,19.98
2019-04-30T15:10:27.429Z,21.45
2019-04-30T15:13:15.585Z,21.73
2019-04-30T15:16:03.319Z,20.90
2019-04-30T15:18:51.033Z,20.20
2019-04-30T15:21:38.933Z,19.95
2019-04-30T15:24:29.299Z,20.43
2019-04-30T15:27:19.026Z,21.07
2019-04-30T15:30:08.281Z,20.52
2019-04-30T15:32:59.356Z,18.65
2019-04-30T15:35:48.211Z,19.52
2019-04-30T15:38:53.158Z,19.60
2019-04-30T15:41:41.238Z,19.20
2019-04-30T15:44:29.172Z,19.20
2019-04-30T15:47:18.909Z,19.52
2019-04-30T15:50:09.642Z,20.32
2019-04-30T15:52:58.452Z,19.45
2019-04-30T15:55:46.424Z,19.25
2019-04-30T15:58:36.009Z,20.48
2019-04-30T16:01:23.761Z,20.45
2019-04-30T16:04:12.688Z,20.30
2019-04-30T16:06:59.693Z,22.57
2019-04-30T16:10:08.789Z,20.62
2019-04-30T16:12:58.936Z,21.48
2019-04-30T16:15:46.673Z,21.27
2019-04-30T16:18:36.022Z,20.70
2019-04-30T16:21:23.493Z,21.33
2019-04-30T16:24:11.675Z,21.17
2019-04-30T16:26:59.516Z,21.20
2019-04-30T16:29:47.932Z,20.05
2019-04-30T16:32:35.846Z,20.90
2019-04-30T16:35:22.853Z,19.53
2019-04-30T16:38:10.101Z,19.63
2019-04-30T16:40:58.482Z,20.80
2019-04-30T16:43:46.321Z,20.07
2019-04-30T16:46:33.389Z,19.87
2019-04-30T16:49:20.732Z,19.70
2019-04-30T16:52:09.147Z,19.83
2019-04-30T16:54:57.270Z,20.10
2019-04-30T16:57:44.933Z,19.07
2019-04-30T17:00:32.879Z,19.62
2019-04-30T17:03:25.348Z,18.92
2019-04-30T17:06:14.455Z,19.37
2019-04-30T17:09:04.150Z,19.52
2019-04-30T17:11:59.493Z,18.85
2019-04-30T17:14:49.287Z,20.80
2019-04-30T17:17:38.632Z,19.90
2019-04-30T17:20:25.156Z,18.03
2019-04-30T17:23:12.207Z,19.77
2019-04-30T17:25:59.591Z,19.03
2019-04-30T17:28:46.576Z,20.53
2019-04-30T17:31:33.610Z,21.37
2019-04-30T17:34:20.539Z,19.37
2019-04-30T17:37:09.109Z,19.50
2019-04-30T17:39:56.371Z,20.00
2019-04-30T17:42:43.767Z,20.47
2019-04-30T17:45:31.146Z,18.90
2019-04-30T17:48:18.339Z,20.60
2019-04-30T17:51:05.469Z,18.93
2019-04-30T17:54:11.958Z,19.50
2019-04-30T17:56:58.844Z,17.93
2019-04-30T17:59:46.209Z,19.23
2019-04-30T18:02:33.524Z,18.90
2019-04-30T18:05:21.044Z,18.37
2019-04-30T18:08:08.541Z,21.77
2019-04-30T18:10:55.966Z,21.10
2019-04-30T18:13:42.861Z,19.10
2019-04-30T18:16:30.225Z,18.90
2019-04-30T18:19:34.846Z,18.00
2019-04-30T18:22:39.984Z,18.93
2019-04-30T18:25:34.231Z,19.33
2019-04-30T18:28:21.438Z,19.57
2019-04-30T18:31:08.915Z,19.73
2019-04-30T18:33:56.477Z,18.57
2019-04-30T18:36:43.174Z,18.40
2019-04-30T18:39:30.100Z,19.33
2019-04-30T18:42:16.928Z,18.57
2019-04-30T18:45:03.811Z,19.63
2019-04-30T18:47:50.906Z,20.90
2019-04-30T18:50:38.298Z,20.13
2019-04-30T18:53:28.609Z,19.13
2019-04-30T18:56:15.559Z,19.07
2019-04-30T18:59:02.646Z,19.00
2019-04-30T19:01:49.762Z,19.53
2019-04-30T19:04:38.948Z,19.37
2019-04-30T19:07:27.253Z,20.63
2019-04-30T19:10:22.352Z,19.00
2019-04-30T19:13:27.338Z,19.47
2019-04-30T19:16:25.603Z,19.03
2019-04-30T19:19:20.897Z,19.23
2019-04-30T19:22:09.153Z,19.53
2019-04-30T19:24:59.502Z,20.53
2019-04-30T19:27:45.376Z,20.40
2019-04-30T19:30:32.779Z,20.53
2019-04-30T19:33:20.280Z,19.23
2019-04-30T19:36:07.325Z,20.47
2019-04-30T19:38:54.690Z,19.87
2019-04-30T19:41:41.810Z,18.57
2019-04-30T19:44:29.410Z,22.63
2019-04-30T19:47:16.516Z,20.67
2019-04-30T19:50:04.922Z,18.43
2019-04-30T19:52:52.152Z,18.90
2019-04-30T19:55:39.972Z,21.00
2019-04-30T19:58:44.937Z,21.93
2019-04-30T20:01:16.119Z,20.67
2019-04-30T20:04:02.881Z,18.50
2019-04-30T20:06:49.951Z,20.57
2019-04-30T20:09:36.809Z,21.43
2019-04-30T20:12:24.038Z,22.03
2019-04-30T20:15:19.391Z,18.43
2019-04-30T20:18:01.055Z,20.07
2019-04-30T20:20:51.910Z,20.73
2019-04-30T20:23:38.392Z,18.70
2019-04-30T20:26:25.829Z,16.80
2019-04-30T20:29:12.876Z,21.47
2019-04-30T20:31:59.946Z,15.87
2019-04-30T20:34:48.844Z,15.57
2019-04-30T20:37:53.641Z,14.87
2019-04-30T20:40:43.695Z,14.60
2019-04-30T20:43:31.398Z,13.83
2019-04-30T20:46:31.123Z,13.17
2019-04-30T20:49:09.173Z,14.93
2019-04-30T20:51:56.262Z,15.43
2019-04-30T20:54:43.363Z,14.93
2019-04-30T20:57:30.283Z,25.87
2019-04-30T21:00:17.678Z,20.20
2019-04-30T21:03:04.847Z,21.30
2019-04-30T21:05:52.244Z,18.63
2019-04-30T21:08:39.607Z,19.03
2019-04-30T21:11:26.928Z,19.43
2019-04-30T21:14:14.276Z,20.20
2019-04-30T21:17:01.270Z,20.63
2019-04-30T21:19:48.365Z,19.93
2019-04-30T21:22:35.967Z,18.37
2019-04-30T21:25:23.090Z,19.67
2019-04-30T21:28:10.239Z,18.60
2019-04-30T21:30:59.286Z,16.93
2019-04-30T21:33:49.263Z,19.90
2019-04-30T21:36:36.832Z,20.97
2019-04-30T21:39:23.945Z,19.07
2019-04-30T21:42:11.074Z,20.90
2019-04-30T21:44:58.151Z,18.80
2019-04-30T21:47:55.825Z,15.17
2019-04-30T21:50:34.054Z,15.30
2019-04-30T21:53:21.548Z,14.77
2019-04-30T21:56:08.564Z,16.30
2019-04-30T21:58:55.741Z,16.20
2019-04-30T22:01:42.941Z,16.00
2019-04-30T22:04:30.261Z,15.57
2019-04-30T22:07:19.345Z,16.10
2019-04-30T22:10:09.931Z,14.73
2019-04-30T22:12:58.638Z,17.60
2019-04-30T22:15:46.126Z,17.70
2019-04-30T22:18:33.580Z,16.07
2019-04-30T22:21:20.932Z,15.90
2019-04-30T22:24:08.002Z,14.37
2019-04-30T22:26:55.248Z,15.43
2019-04-30T22:29:42.412Z,17.27
2019-04-30T22:32:29.526Z,16.23
2019-04-30T22:35:27.068Z,15.63
2019-04-30T22:38:32.055Z,15.27
2019-04-30T22:41:20.906Z,16.00
2019-04-30T22:44:08.187Z,15.67
2019-04-30T22:46:55.249Z,15.70
2019-04-30T22:49:42.060Z,14.87
2019-04-30T22:52:29.561Z,16.90
2019-04-30T22:55:16.643Z,13.37
2019-04-30T22:58:03.662Z,13.80
2019-04-30T23:00:52.815Z,16.43
2019-04-30T23:03:39.765Z,19.10
2019-04-30T23:06:27.014Z,16.00
2019-04-30T23:09:15.868Z,16.93
2019-04-30T23:12:04.371Z,17.93
2019-04-30T23:14:51.683Z,17.67
2019-04-30T23:17:38.723Z,16.00
2019-04-30T23:20:26.223Z,16.27
2019-04-30T23:23:13.223Z,17.17
2019-04-30T23:26:00.466Z,18.00
2019-04-30T23:28:47.952Z,16.83
2019-04-30T23:31:35.127Z,17.77
2019-04-30T23:34:22.157Z,17.23
2019-04-30T23:37:09.494Z,18.67
2019-04-30T23:39:58.638Z,18.03
2019-04-30T23:42:45.381Z,18.73
2019-04-30T23:45:32.709Z,17.27
2019-04-30T23:48:20.029Z,17.30
2019-04-30T23:51:07.111Z,17.17
2019-04-30T23:53:54.374Z,17.83
2019-04-30T23:56:41.365Z,18.57
2019-04-30T23:59:28.569Z,15.97
